createdAt,value
2023-03-06T00:00:55.032Z,99963.09
2023-03-06T00:03:23.668Z,99962.78
2023-03-06T00:05:51.613Z,99961.06
2023-03-06T00:08:19.483Z,99951.28
2023-03-06T00:10:47.458Z,99948.91
2023-03-06T00:13:19.927Z,99944.53
2023-03-06T00:15:48.608Z,99942.84
2023-03-06T00:18:16.651Z,99940.47
2023-03-06T00:20:45.293Z,99947.19
2023-03-06T00:23:13.431Z,99931.41
2023-03-06T00:25:43.635Z,99934.09
2023-03-06T00:28:12.271Z,99926.69
2023-03-06T00:30:41.886Z,99922.84
2023-03-06T00:33:09.787Z,99928.38
2023-03-06T00:35:39.592Z,99922.31
2023-03-06T00:38:07.760Z,99925.00
2023-03-06T00:40:35.613Z,99921.63
2023-03-06T00:43:03.492Z,99910.31
2023-03-06T00:45:31.356Z,99905.56
2023-03-06T00:48:00.596Z,99910.19
2023-03-06T00:50:28.688Z,99899.03
2023-03-06T00:52:56.508Z,99899.66
2023-03-06T00:55:26.021Z,99900.63
2023-03-06T00:57:53.901Z,99892.84
2023-03-06T01:00:22.029Z,99896.56
2023-03-06T01:02:51.203Z,99897.59
2023-03-06T01:05:20.716Z,99893.56
2023-03-06T01:07:48.564Z,99887.00
2023-03-06T01:10:16.341Z,99884.34
2023-03-06T01:12:44.167Z,99879.47
2023-03-06T01:15:13.916Z,99871.38
2023-03-06T01:17:41.822Z,99875.94
2023-03-06T01:20:14.598Z,99870.34
2023-03-06T01:22:44.552Z,99867.97
2023-03-06T01:25:12.717Z,99867.13
2023-03-06T01:27:40.580Z,99862.31
2023-03-06T01:30:13.191Z,99856.19
2023-03-06T01:32:41.138Z,99855.66
2023-03-06T01:35:09.797Z,99858.53
2023-03-06T01:37:38.191Z,99856.31
2023-03-06T01:40:09.521Z,99849.78
2023-03-06T01:42:37.365Z,99843.91
2023-03-06T01:45:09.751Z,99846.91
2023-03-06T01:47:37.819Z,99833.81
2023-03-06T01:50:08.853Z,99841.41
2023-03-06T01:52:40.982Z,99835.81
2023-03-06T01:55:15.846Z,99839.00
2023-03-06T01:57:46.205Z,99829.59
2023-03-06T02:00:17.429Z,99827.28
2023-03-06T02:02:48.449Z,99830.44
2023-03-06T02:05:17.450Z,99825.78
2023-03-06T02:07:48.220Z,99815.31
2023-03-06T02:10:20.577Z,99822.69
2023-03-06T02:12:50.350Z,99826.00
2023-03-06T02:15:21.421Z,99824.75
2023-03-06T02:17:51.316Z,99815.69
2023-03-06T02:20:26.082Z,99814.28
2023-03-06T02:23:01.132Z,99814.94
2023-03-06T02:25:38.919Z,99820.88
2023-03-06T02:28:08.573Z,99816.53
2023-03-06T02:30:37.101Z,99816.16
2023-03-06T02:33:06.039Z,99806.41
2023-03-06T02:35:36.396Z,99805.91
2023-03-06T02:38:09.276Z,99807.28
2023-03-06T02:40:39.030Z,99799.84
2023-03-06T02:43:08.536Z,99796.66
2023-03-06T02:45:39.705Z,99791.59
2023-03-06T02:48:08.373Z,99782.81
2023-03-06T02:50:36.301Z,99780.44
2023-03-06T02:53:04.180Z,99775.06
2023-03-06T02:55:32.410Z,99775.78
2023-03-06T02:58:02.950Z,99767.31
2023-03-06T03:00:31.808Z,99769.28
2023-03-06T03:03:02.225Z,99762.44
2023-03-06T03:05:31.839Z,99763.91
2023-03-06T03:08:06.971Z,99771.25
2023-03-06T03:10:35.263Z,99766.84
2023-03-06T03:13:04.754Z,99760.13
2023-03-06T03:15:33.954Z,99747.03
2023-03-06T03:18:01.841Z,99757.44
2023-03-06T03:20:29.651Z,99749.03
2023-03-06T03:22:57.670Z,99743.66
2023-03-06T03:25:26.910Z,99754.72
2023-03-06T03:27:57.377Z,99746.97
2023-03-06T03:30:26.573Z,99745.75
2023-03-06T03:32:54.733Z,99741.91
2023-03-06T03:35:22.719Z,99734.88
2023-03-06T03:37:52.507Z,99737.88
2023-03-06T03:40:20.392Z,99734.88
2023-03-06T03:42:50.635Z,99735.56
2023-03-06T03:45:18.517Z,99721.19
2023-03-06T03:47:47.892Z,99716.97
2023-03-06T03:50:15.912Z,99719.94
2023-03-06T03:52:44.059Z,99718.94
2023-03-06T03:55:13.287Z,99712.66
2023-03-06T03:57:43.185Z,99721.34
2023-03-06T04:00:16.108Z,99724.72
2023-03-06T04:02:58.666Z,99723.22
2023-03-06T04:05:36.876Z,99710.09
2023-03-06T04:08:07.513Z,99716.31
2023-03-06T04:10:39.387Z,99717.31
2023-03-06T04:13:10.169Z,99712.94
2023-03-06T04:15:41.444Z,99707.06
2023-03-06T04:18:10.702Z,99701.50
2023-03-06T04:20:38.986Z,99699.00
2023-03-06T04:23:06.754Z,99696.28
2023-03-06T04:25:34.616Z,99693.19
2023-03-06T04:28:05.420Z,99694.50
2023-03-06T04:30:34.177Z,99696.66
2023-03-06T04:33:02.954Z,99690.75
2023-03-06T04:35:32.261Z,99696.75
2023-03-06T04:38:04.799Z,99690.88
2023-03-06T04:40:37.610Z,99693.66
2023-03-06T04:43:06.587Z,99688.13
2023-03-06T04:45:35.351Z,99686.44
2023-03-06T04:48:03.474Z,99682.56
2023-03-06T04:50:32.929Z,99689.31
2023-03-06T04:53:02.022Z,99694.94
2023-03-06T04:55:30.222Z,99686.19
2023-03-06T04:57:58.902Z,99692.00
2023-03-06T05:00:31.439Z,99685.06
2023-03-06T05:03:00.907Z,99680.63
2023-03-06T05:05:30.046Z,99681.34
2023-03-06T05:07:59.189Z,99684.78
2023-03-06T05:10:26.995Z,99676.41
2023-03-06T05:12:54.819Z,99678.66
2023-03-06T05:15:22.698Z,99672.94
2023-03-06T05:17:50.553Z,99669.34
2023-03-06T05:20:18.897Z,99679.59
2023-03-06T05:22:46.731Z,99671.53
2023-03-06T05:25:15.885Z,99664.69
2023-03-06T05:27:43.893Z,99661.66
2023-03-06T05:30:14.839Z,99662.50
2023-03-06T05:32:42.912Z,99656.19
2023-03-06T05:35:17.938Z,99655.53
2023-03-06T05:37:45.899Z,99649.78
2023-03-06T05:40:14.816Z,99655.13
2023-03-06T05:42:44.089Z,99651.59
2023-03-06T05:45:12.925Z,99654.75
2023-03-06T05:47:40.894Z,99649.53
2023-03-06T05:50:13.954Z,99648.06
2023-03-06T05:52:42.192Z,99648.03
2023-03-06T05:55:13.060Z,99636.34
2023-03-06T05:57:41.080Z,99649.78
2023-03-06T06:00:14.047Z,99655.47
2023-03-06T06:02:42.868Z,99648.50
2023-03-06T06:05:13.086Z,99649.66
2023-03-06T06:07:41.776Z,99651.50
2023-03-06T06:10:11.895Z,99645.19
2023-03-06T06:12:39.927Z,99633.75
2023-03-06T06:15:10.203Z,99639.47
2023-03-06T06:17:38.061Z,99647.84
2023-03-06T06:20:06.596Z,99641.59
2023-03-06T06:22:36.912Z,99639.47
2023-03-06T06:25:05.437Z,99636.53
2023-03-06T06:27:33.545Z,99644.13
2023-03-06T06:30:01.409Z,99627.13
2023-03-06T06:32:30.683Z,99634.50
2023-03-06T06:34:58.603Z,99635.38
2023-03-06T06:37:26.892Z,99634.91
2023-03-06T06:39:54.742Z,99636.09
2023-03-06T06:42:36.942Z,99638.00
2023-03-06T06:45:08.178Z,99635.47
2023-03-06T06:47:40.970Z,99639.47
2023-03-06T06:50:13.319Z,99622.88
2023-03-06T06:52:41.437Z,99632.44
2023-03-06T06:55:10.449Z,99633.16
2023-03-06T06:57:38.462Z,99628.44
2023-03-06T07:00:07.636Z,99632.09
2023-03-06T07:02:36.810Z,99635.66
2023-03-06T07:05:05.676Z,99631.81
2023-03-06T07:07:36.649Z,99646.78
2023-03-06T07:10:06.414Z,99640.44
2023-03-06T07:12:35.116Z,99621.06
2023-03-06T07:15:03.825Z,99635.22
2023-03-06T07:17:31.672Z,99631.50
2023-03-06T07:20:01.084Z,99634.56
2023-03-06T07:22:31.971Z,99628.78
2023-03-06T07:25:05.326Z,99638.56
2023-03-06T07:27:33.437Z,99635.03
2023-03-06T07:30:01.475Z,99637.72
2023-03-06T07:32:29.314Z,99636.06
2023-03-06T07:35:13.704Z,99638.59
2023-03-06T07:37:46.802Z,99635.56
2023-03-06T07:40:14.710Z,99642.47
2023-03-06T07:42:42.630Z,99633.88
2023-03-06T07:45:14.178Z,99640.44
2023-03-06T07:47:42.091Z,99635.56
2023-03-06T07:50:11.132Z,99632.88
2023-03-06T07:52:39.051Z,99631.03
2023-03-06T07:55:10.247Z,99629.84
2023-03-06T07:57:38.344Z,99625.78
2023-03-06T08:00:09.623Z,99623.63
2023-03-06T08:02:42.595Z,99622.63
2023-03-06T08:05:14.310Z,99636.22
2023-03-06T08:07:42.861Z,99639.28
2023-03-06T08:10:14.766Z,99632.53
2023-03-06T08:12:42.717Z,99631.88
2023-03-06T08:15:12.419Z,99637.91
2023-03-06T08:17:40.704Z,99640.75
2023-03-06T08:20:10.343Z,99636.75
2023-03-06T08:22:38.658Z,99633.69
2023-03-06T08:25:07.696Z,99642.91
2023-03-06T08:27:37.255Z,99649.34
2023-03-06T08:30:05.655Z,99649.16
2023-03-06T08:32:35.821Z,99639.03
2023-03-06T08:35:05.759Z,99647.25
2023-03-06T08:37:33.704Z,99647.78
2023-03-06T08:40:02.641Z,99651.19
2023-03-06T08:42:30.795Z,99648.81
2023-03-06T08:45:00.019Z,99644.94
2023-03-06T08:47:27.897Z,99647.25
2023-03-06T08:49:55.867Z,99652.97
2023-03-06T08:52:23.744Z,99656.88
2023-03-06T08:54:51.656Z,99655.00
2023-03-06T08:57:19.558Z,99663.72
2023-03-06T08:59:47.459Z,99656.88
2023-03-06T09:02:16.684Z,99658.03
2023-03-06T09:04:44.697Z,99659.34
2023-03-06T09:07:12.593Z,99648.09
2023-03-06T09:09:40.752Z,99653.34
2023-03-06T09:12:08.731Z,99657.75
2023-03-06T09:14:36.620Z,99658.44
2023-03-06T09:17:04.689Z,99652.72
2023-03-06T09:19:33.889Z,99653.25
2023-03-06T09:22:01.828Z,99651.72
2023-03-06T09:24:29.667Z,99652.41
2023-03-06T09:26:57.524Z,99656.78
2023-03-06T09:29:25.607Z,99654.94
2023-03-06T09:31:53.587Z,99648.38
2023-03-06T09:34:21.847Z,99654.09
2023-03-06T09:36:56.872Z,99662.50
2023-03-06T09:39:27.150Z,99657.13
2023-03-06T09:41:57.243Z,99659.66
2023-03-06T09:44:27.739Z,99658.47
2023-03-06T09:47:11.550Z,99659.16
2023-03-06T09:49:52.349Z,99653.59
2023-03-06T09:52:31.071Z,99659.81
2023-03-06T09:55:02.706Z,99654.59
2023-03-06T09:57:36.156Z,99661.66
2023-03-06T10:00:07.993Z,99664.88
2023-03-06T10:02:40.024Z,99665.88
2023-03-06T10:05:16.257Z,99665.84
2023-03-06T10:07:49.795Z,99659.78
2023-03-06T10:10:20.948Z,99657.13
2023-03-06T10:12:58.653Z,99659.47
2023-03-06T10:15:28.717Z,99661.66
2023-03-06T10:17:58.125Z,99656.44
2023-03-06T10:20:28.473Z,99652.41
2023-03-06T10:23:20.789Z,99654.44
2023-03-06T10:26:00.265Z,99658.63
2023-03-06T10:28:31.046Z,99661.50
2023-03-06T10:31:03.953Z,99650.25
2023-03-06T10:33:43.546Z,99657.13
2023-03-06T10:36:15.570Z,99659.31
2023-03-06T10:38:46.091Z,99659.66
2023-03-06T10:41:22.911Z,99661.00
2023-03-06T10:44:19.403Z,99664.53
2023-03-06T10:46:49.796Z,99662.50
2023-03-06T10:49:27.737Z,99662.50
2023-03-06T10:52:01.703Z,99677.97
2023-03-06T10:54:33.628Z,99665.53
2023-03-06T10:57:20.733Z,99660.16
2023-03-06T10:59:54.144Z,99668.25
2023-03-06T11:02:28.200Z,99673.13
2023-03-06T11:04:57.690Z,99671.09
2023-03-06T11:07:28.378Z,99666.88
2023-03-06T11:10:17.861Z,99668.22
2023-03-06T11:12:58.065Z,99670.41
2023-03-06T11:15:27.129Z,99677.50
2023-03-06T11:18:00.998Z,99677.66
2023-03-06T11:20:44.877Z,99675.97
2023-03-06T11:23:19.617Z,99672.78
2023-03-06T11:25:53.248Z,99674.66
2023-03-06T11:28:26.702Z,99668.94
2023-03-06T11:31:01.967Z,99669.75
2023-03-06T11:33:35.244Z,99673.09
2023-03-06T11:36:12.842Z,99664.47
2023-03-06T11:38:45.609Z,99665.88
2023-03-06T11:41:24.906Z,99659.97
2023-03-06T11:44:01.891Z,99639.00
2023-03-06T11:46:33.498Z,99666.88
2023-03-06T11:49:09.928Z,99662.19
2023-03-06T11:51:43.629Z,99665.53
2023-03-06T11:54:14.008Z,99670.25
2023-03-06T11:56:52.736Z,99659.81
2023-03-06T11:59:51.727Z,99658.97
2023-03-06T12:02:34.237Z,99658.16
2023-03-06T12:05:22.656Z,99656.78
2023-03-06T12:07:59.728Z,99652.38
2023-03-06T12:10:32.523Z,99662.09
2023-03-06T12:16:18.359Z,99660.72
2023-03-06T12:18:58.405Z,99658.72
2023-03-06T12:21:34.775Z,99664.78
2023-03-06T12:24:27.548Z,99657.38
2023-03-06T12:27:13.369Z,99646.91
2023-03-06T12:29:56.223Z,99660.34
2023-03-06T12:32:39.048Z,99649.13
2023-03-06T12:35:26.974Z,99656.56
2023-03-06T12:38:07.916Z,99650.84
2023-03-06T12:40:52.004Z,99650.56
2023-03-06T12:43:47.053Z,99650.75
2023-03-06T12:46:18.493Z,99651.19
2023-03-06T12:48:49.520Z,99649.91
2023-03-06T12:51:21.367Z,99645.50
2023-03-06T12:53:51.861Z,99638.69
2023-03-06T12:56:21.883Z,99632.94
2023-03-06T12:58:52.198Z,99633.56
2023-03-06T13:01:39.432Z,99638.44
2023-03-06T13:04:27.342Z,99638.00
2023-03-06T13:07:11.049Z,99638.81
2023-03-06T13:09:56.973Z,99640.34
2023-03-06T13:12:36.909Z,99638.81
2023-03-06T13:15:33.202Z,99632.75
2023-03-06T13:18:03.472Z,99626.66
2023-03-06T13:20:37.088Z,99631.31
2023-03-06T13:23:45.019Z,99637.06
2023-03-06T13:26:55.251Z,99627.69
2023-03-06T13:29:59.452Z,99623.06
2023-03-06T13:32:33.294Z,99619.41
2023-03-06T13:35:01.368Z,99618.03
2023-03-06T13:37:51.739Z,99619.47
2023-03-06T13:40:34.454Z,99607.88
2023-03-06T13:43:21.791Z,99597.88
2023-03-06T13:45:51.188Z,99605.13
2023-03-06T13:48:45.513Z,99603.56
2023-03-06T13:51:17.169Z,99598.41
2023-03-06T13:54:18.365Z,99600.28
2023-03-06T13:57:04.660Z,99596.66
2023-03-06T14:00:03.180Z,99592.94
2023-03-06T14:02:55.818Z,99597.81
2023-03-06T14:05:24.057Z,99587.59
2023-03-06T14:08:07.297Z,99597.38
2023-03-06T14:10:38.836Z,99585.63
2023-03-06T14:13:14.014Z,99585.53
2023-03-06T14:15:45.815Z,99575.50
2023-03-06T14:18:23.908Z,99590.91
2023-03-06T14:20:56.266Z,99576.78
2023-03-06T14:23:27.249Z,99576.19
2023-03-06T14:26:00.036Z,99574.81
2023-03-06T14:28:30.054Z,99573.31
2023-03-06T14:31:01.249Z,99568.84
2023-03-06T14:33:33.262Z,99568.75
2023-03-06T14:36:03.804Z,99562.13
2023-03-06T14:38:37.209Z,99556.66
2023-03-06T14:41:06.992Z,99556.25
2023-03-06T14:43:34.798Z,99558.22
2023-03-06T14:46:06.449Z,99557.69
2023-03-06T14:48:40.158Z,99553.94
2023-03-06T14:51:14.305Z,99562.59
2023-03-06T14:53:44.475Z,99559.44
2023-03-06T14:56:18.379Z,99553.84
2023-03-06T14:58:54.933Z,99554.50
2023-03-06T15:01:29.298Z,99567.19
2023-03-06T15:04:00.704Z,99549.16
2023-03-06T15:06:33.140Z,99553.00
2023-03-06T15:09:07.750Z,99545.94
2023-03-06T15:11:55.185Z,99548.44
2023-03-06T15:14:30.541Z,99546.38
2023-03-06T15:17:21.727Z,99543.94
2023-03-06T15:19:51.320Z,99538.53
2023-03-06T15:22:28.877Z,99532.22
2023-03-06T15:25:21.512Z,99533.72
2023-03-06T15:27:52.233Z,99541.53
2023-03-06T15:30:27.331Z,99539.88
2023-03-06T15:33:21.052Z,99528.50
2023-03-06T15:35:54.886Z,99528.00
2023-03-06T15:38:32.738Z,99531.22
2023-03-06T15:41:02.250Z,99533.13
2023-03-06T15:43:35.229Z,99532.22
2023-03-06T15:46:07.368Z,99528.22
2023-03-06T15:48:36.673Z,99531.66
2023-03-06T15:51:06.401Z,99533.50
2023-03-06T15:53:40.000Z,99533.03
2023-03-06T15:56:08.548Z,99533.13
2023-03-06T15:58:36.521Z,99531.94
2023-03-06T16:01:04.700Z,99522.88
2023-03-06T16:03:32.907Z,99523.22
2023-03-06T16:06:02.143Z,99523.72
2023-03-06T16:08:30.006Z,99513.28
2023-03-06T16:10:58.120Z,99522.31
2023-03-06T16:13:28.704Z,99510.09
2023-03-06T16:15:59.401Z,99513.34
2023-03-06T16:18:31.501Z,99511.59
2023-03-06T16:20:59.343Z,99504.59
2023-03-06T16:23:28.565Z,99505.16
2023-03-06T16:25:56.434Z,99507.56
2023-03-06T16:28:24.573Z,99501.22
2023-03-06T16:30:52.427Z,99506.88
2023-03-06T16:33:20.302Z,99506.88
2023-03-06T16:35:49.839Z,99504.97
2023-03-06T16:38:18.007Z,99503.44
2023-03-06T16:40:47.282Z,99503.72
2023-03-06T16:43:16.129Z,99497.50
2023-03-06T16:45:44.769Z,99499.41
2023-03-06T16:48:17.008Z,99501.50
2023-03-06T16:50:45.588Z,99498.84
2023-03-06T16:53:13.513Z,99495.91
2023-03-06T16:55:41.348Z,99503.16
2023-03-06T16:58:10.739Z,99500.34
2023-03-06T17:00:38.598Z,99496.84
2023-03-06T17:03:07.313Z,99488.63
2023-03-06T17:05:36.577Z,99498.44
2023-03-06T17:08:05.639Z,99503.00
2023-03-06T17:10:33.487Z,99493.63
2023-03-06T17:13:01.345Z,99503.78
2023-03-06T17:15:30.549Z,99503.44
2023-03-06T17:17:58.992Z,99496.94
2023-03-06T17:20:28.769Z,99495.75
2023-03-06T17:22:59.555Z,99481.31
2023-03-06T17:25:27.416Z,99490.72
2023-03-06T17:27:55.222Z,99500.13
2023-03-06T17:30:22.987Z,99504.53
2023-03-06T17:32:52.115Z,99495.91
2023-03-06T17:35:20.080Z,99499.78
2023-03-06T17:37:48.107Z,99494.22
2023-03-06T17:40:16.470Z,99496.78
2023-03-06T17:42:44.266Z,99497.28
2023-03-06T17:45:12.662Z,99497.78
2023-03-06T17:47:40.431Z,99493.47
2023-03-06T17:50:11.300Z,99492.78
2023-03-06T17:52:39.161Z,99493.81
2023-03-06T17:55:08.284Z,99494.84
2023-03-06T17:57:39.520Z,99486.91
2023-03-06T18:00:09.599Z,99484.66
2023-03-06T18:02:40.502Z,99487.34
2023-03-06T18:05:13.144Z,99487.19
2023-03-06T18:07:41.000Z,99479.78
2023-03-06T18:10:12.006Z,99477.38
2023-03-06T18:12:40.003Z,99475.88
2023-03-06T18:15:09.004Z,99477.09
2023-03-06T18:17:37.028Z,99478.81
2023-03-06T18:20:05.538Z,99474.00
2023-03-06T18:22:34.730Z,99469.09
2023-03-06T18:25:04.843Z,99458.16
2023-03-06T18:27:34.081Z,99461.63
2023-03-06T18:30:02.649Z,99464.94
2023-03-06T18:32:30.924Z,99463.34
2023-03-06T18:34:58.873Z,99459.63
2023-03-06T18:37:26.834Z,99460.00
2023-03-06T18:39:56.225Z,99456.44
2023-03-06T18:42:24.679Z,99449.47
2023-03-06T18:44:55.304Z,99447.25
2023-03-06T18:47:23.134Z,99453.19
2023-03-06T18:49:51.098Z,99446.34
2023-03-06T18:52:19.123Z,99444.69
2023-03-06T18:54:48.457Z,99443.03
2023-03-06T18:57:17.710Z,99443.78
2023-03-06T18:59:45.859Z,99443.03
2023-03-06T19:02:13.843Z,99439.97
2023-03-06T19:04:41.915Z,99439.59
2023-03-06T19:07:09.783Z,99431.91
2023-03-06T19:09:37.596Z,99434.75
2023-03-06T19:12:06.196Z,99431.22
2023-03-06T19:14:36.315Z,99431.91
2023-03-06T19:17:04.593Z,99435.59
2023-03-06T19:19:32.771Z,99415.56
2023-03-06T19:22:01.947Z,99416.78
2023-03-06T19:24:29.795Z,99415.28
2023-03-06T19:26:57.667Z,99420.00
2023-03-06T19:29:25.553Z,99421.53
2023-03-06T19:31:57.027Z,99410.19
2023-03-06T19:34:25.218Z,99408.00
2023-03-06T19:36:53.141Z,99400.63
2023-03-06T19:39:21.015Z,99405.69
2023-03-06T19:41:48.928Z,99407.72
2023-03-06T19:44:18.832Z,99401.19
2023-03-06T19:46:46.699Z,99405.22
2023-03-06T19:49:18.075Z,99405.03
2023-03-06T19:51:46.086Z,99394.47
2023-03-06T19:54:14.612Z,99401.66
2023-03-06T19:56:42.753Z,99395.16
2023-03-06T19:59:11.038Z,99395.63
2023-03-06T20:01:40.234Z,99394.94
2023-03-06T20:04:08.457Z,99390.41
2023-03-06T20:06:40.119Z,99380.94
2023-03-06T20:09:09.801Z,99375.09
2023-03-06T20:11:37.809Z,99372.72
2023-03-06T20:14:07.760Z,99367.16
2023-03-06T20:16:36.737Z,99374.94
2023-03-06T20:19:05.128Z,99359.81
2023-03-06T20:21:37.552Z,99356.94
2023-03-06T20:24:08.183Z,99354.22
2023-03-06T20:26:37.962Z,99356.19
2023-03-06T20:29:05.905Z,99344.44
2023-03-06T20:31:34.053Z,99345.28
2023-03-06T20:34:02.018Z,99335.72
2023-03-06T20:36:31.276Z,99336.06
2023-03-06T20:39:01.339Z,99338.19
2023-03-06T20:41:31.909Z,99331.25
2023-03-06T20:44:00.708Z,99308.94
2023-03-06T20:46:29.332Z,99317.16
2023-03-06T20:48:58.145Z,99314.47
2023-03-06T20:51:27.920Z,99317.50
2023-03-06T20:53:56.893Z,99307.81
2023-03-06T20:56:27.031Z,99305.59
2023-03-06T20:58:56.929Z,99304.16
2023-03-06T21:01:27.062Z,99309.28
2023-03-06T21:03:56.742Z,99300.72
2023-03-06T21:06:25.673Z,99285.13
2023-03-06T21:08:53.620Z,99299.59
2023-03-06T21:11:21.531Z,99299.34
2023-03-06T21:13:49.875Z,99282.91
2023-03-06T21:16:23.722Z,99288.31
2023-03-06T21:18:51.889Z,99275.13
2023-03-06T21:21:21.892Z,99275.13
2023-03-06T21:23:50.440Z,99259.97
2023-03-06T21:26:20.010Z,99261.16
2023-03-06T21:28:47.966Z,99254.63
2023-03-06T21:31:17.351Z,99244.19
2023-03-06T21:33:47.502Z,99244.19
2023-03-06T21:36:16.209Z,99246.78
2023-03-06T21:38:44.071Z,99238.94
2023-03-06T21:41:13.967Z,99240.47
2023-03-06T21:43:42.594Z,99225.84
2023-03-06T21:46:11.097Z,99219.28
2023-03-06T21:48:38.917Z,99223.69
2023-03-06T21:51:10.765Z,99220.69
2023-03-06T21:53:40.957Z,99212.94
2023-03-06T21:56:09.335Z,99208.25
2023-03-06T21:58:37.865Z,99206.84
2023-03-06T22:01:10.541Z,99200.47
2023-03-06T22:03:38.826Z,99185.00
2023-03-06T22:06:12.166Z,99187.22
2023-03-06T22:08:40.534Z,99186.25
2023-03-06T22:11:09.737Z,99177.34
2023-03-06T22:13:37.942Z,99175.97
2023-03-06T22:16:06.646Z,99165.56
2023-03-06T22:18:35.013Z,99169.91
2023-03-06T22:21:07.445Z,99153.16
2023-03-06T22:23:37.184Z,99158.84
2023-03-06T22:26:06.857Z,99148.47
2023-03-06T22:28:34.980Z,99138.97
2023-03-06T22:31:07.435Z,99133.25
2023-03-06T22:33:35.529Z,99135.97
2023-03-06T22:36:06.149Z,99125.66
2023-03-06T22:38:34.504Z,99124.47
2023-03-06T22:41:04.309Z,99108.31
2023-03-06T22:43:32.633Z,99111.84
2023-03-06T22:46:05.322Z,99103.91
2023-03-06T22:48:34.018Z,99104.31
2023-03-06T22:51:06.401Z,99094.91
2023-03-06T22:53:34.949Z,99096.50
2023-03-06T22:56:06.332Z,99088.00
2023-03-06T22:58:37.480Z,99082.50
2023-03-06T23:01:07.851Z,99076.38
2023-03-06T23:03:37.033Z,99062.69
2023-03-06T23:06:10.039Z,99071.38
2023-03-06T23:08:38.410Z,99061.97
2023-03-06T23:11:10.945Z,99056.59
2023-03-06T23:13:58.039Z,99051.09
2023-03-06T23:16:45.098Z,99041.97
2023-03-06T23:19:31.164Z,99041.78
2023-03-06T23:22:17.844Z,99031.34
2023-03-06T23:25:04.268Z,99030.38
2023-03-06T23:27:33.424Z,99027.50
2023-03-06T23:30:01.235Z,99018.91
2023-03-06T23:32:29.095Z,99024.28
2023-03-06T23:34:58.005Z,99013.16
2023-03-06T23:37:25.914Z,99001.47
2023-03-06T23:39:54.074Z,99007.88
2023-03-06T23:42:22.612Z,99012.66
2023-03-06T23:44:51.952Z,98997.28
2023-03-06T23:47:20.097Z,98999.63
2023-03-06T23:49:47.948Z,98997.53
2023-03-06T23:52:15.840Z,98979.16
2023-03-06T23:54:43.802Z,98981.97
2023-03-06T23:57:11.641Z,98997.63
2023-03-06T23:59:39.614Z,98986.38
